Time;durP1;ratioP1;P1;durP2;ratioP2;P2;SDS_P1;SDS_P2;PMS_P1;PMS_P2;Temp;Humidity;BMP_temperature;BMP_pressure;BME280_temperature;BME280_humidity;BME280_pressure;Samples;Min_cycle;Max_cycle;Signal;HPM_P1;HPM_P2
2022/02/28 00:00:52;;;;;;;3.20;2.90;;;;;;;;;;143727;577;46012;-67
2022/02/28 00:03:19;;;;;;;4.72;3.45;;;;;;;;;;143729;602;45020;-66
2022/02/28 00:05:46;;;;;;;3.33;3.03;;;;;;;;;;143731;580;46020;-66
2022/02/28 00:08:13;;;;;;;6.00;3.70;;;;;;;;;;143728;579;46020;-66
2022/02/28 00:10:41;;;;;;;4.78;3.62;;;;;;;;;;143725;592;46012;-66
2022/02/28 00:13:10;;;;;;;3.95;3.50;;;;;;;;;;143729;597;45021;-67
2022/02/28 00:15:37;;;;;;;4.75;3.53;;;;;;;;;;143731;603;46021;-66
2022/02/28 00:18:04;;;;;;;4.40;3.50;;;;;;;;;;143728;569;46020;-66
2022/02/28 00:20:31;;;;;;;4.68;3.20;;;;;;;;;;143726;579;46013;-68
2022/02/28 00:22:58;;;;;;;4.37;3.10;;;;;;;;;;143730;589;45021;-66
2022/02/28 00:25:26;;;;;;;3.53;3.17;;;;;;;;;;143731;573;46020;-67
2022/02/28 00:27:54;;;;;;;3.45;2.83;;;;;;;;;;143728;582;46022;-68
2022/02/28 00:30:20;;;;;;;4.57;3.37;;;;;;;;;;143725;753;46012;-67
2022/02/28 00:32:48;;;;;;;3.35;3.05;;;;;;;;;;143729;591;45023;-67
2022/02/28 00:35:15;;;;;;;3.97;3.22;;;;;;;;;;143732;615;45027;-67
2022/02/28 00:37:42;;;;;;;4.12;3.28;;;;;;;;;;143726;589;46020;-67
2022/02/28 00:40:09;;;;;;;3.20;2.90;;;;;;;;;;143726;611;46012;-67
2022/02/28 00:42:36;;;;;;;4.47;3.75;;;;;;;;;;143730;594;46020;-67
2022/02/28 00:45:04;;;;;;;4.00;2.62;;;;;;;;;;143732;617;45029;-67
2022/02/28 00:47:31;;;;;;;3.90;3.25;;;;;;;;;;143728;631;46020;-66
2022/02/28 00:49:58;;;;;;;5.37;3.85;;;;;;;;;;143725;566;46013;-65
2022/02/28 00:52:25;;;;;;;5.95;3.95;;;;;;;;;;143728;631;46012;-65
2022/02/28 00:54:52;;;;;;;4.72;3.92;;;;;;;;;;143731;565;46020;-65
2022/02/28 00:57:19;;;;;;;4.05;3.25;;;;;;;;;;143727;579;46021;-65
2022/02/28 00:59:46;;;;;;;4.15;3.22;;;;;;;;;;143728;607;46012;-66
2022/02/28 01:02:13;;;;;;;5.28;3.42;;;;;;;;;;143728;631;45020;-65
2022/02/28 01:04:40;;;;;;;4.72;3.75;;;;;;;;;;143729;620;46014;-66
2022/02/28 01:07:07;;;;;;;5.60;4.53;;;;;;;;;;143727;625;46021;-66
2022/02/28 01:09:34;;;;;;;4.97;4.10;;;;;;;;;;143725;603;46918;-67
2022/02/28 01:12:03;;;;;;;5.70;4.22;;;;;;;;;;143726;610;46021;-67
2022/02/28 01:14:31;;;;;;;5.32;3.85;;;;;;;;;;143730;583;46021;-67
2022/02/28 01:16:58;;;;;;;5.97;4.78;;;;;;;;;;143729;623;46020;-67
2022/02/28 01:19:25;;;;;;;5.43;4.15;;;;;;;;;;143728;611;46013;-67
2022/02/28 01:21:52;;;;;;;5.80;4.00;;;;;;;;;;143730;594;45023;-66
2022/02/28 01:24:19;;;;;;;6.07;4.47;;;;;;;;;;143729;605;46020;-68
2022/02/28 01:26:48;;;;;;;5.85;4.68;;;;;;;;;;143725;623;46022;-68
2022/02/28 01:29:16;;;;;;;4.60;3.55;;;;;;;;;;143728;594;46012;-67
2022/02/28 01:31:43;;;;;;;6.50;4.50;;;;;;;;;;143729;625;45020;-67
2022/02/28 01:34:10;;;;;;;5.68;4.47;;;;;;;;;;143732;577;45020;-67
2022/02/28 01:36:37;;;;;;;7.05;5.15;;;;;;;;;;143728;598;47020;-67
2022/02/28 01:39:05;;;;;;;7.18;5.22;;;;;;;;;;143726;595;46012;-67
2022/02/28 01:41:32;;;;;;;3.78;3.22;;;;;;;;;;143729;695;45020;-68
2022/02/28 01:44:00;;;;;;;6.12;4.57;;;;;;;;;;143731;608;46010;-68
2022/02/28 01:46:27;;;;;;;4.55;3.67;;;;;;;;;;143726;591;46020;-67
2022/02/28 01:48:54;;;;;;;4.80;3.85;;;;;;;;;;143724;642;46012;-67
2022/02/28 01:51:21;;;;;;;7.57;5.10;;;;;;;;;;143728;582;45913;-66
2022/02/28 01:53:48;;;;;;;6.68;4.60;;;;;;;;;;143732;571;45020;-68
2022/02/28 01:56:15;;;;;;;9.38;5.47;;;;;;;;;;143727;648;46020;-67
2022/02/28 01:58:42;;;;;;;7.62;4.68;;;;;;;;;;143727;592;46012;-67
2022/02/28 02:01:09;;;;;;;6.70;4.80;;;;;;;;;;143729;598;45020;-67
2022/02/28 02:03:36;;;;;;;7.82;5.25;;;;;;;;;;143728;563;46020;-67
2022/02/28 02:06:07;;;;;;;5.85;4.18;;;;;;;;;;143726;580;46021;-67
2022/02/28 02:08:34;;;;;;;6.53;4.80;;;;;;;;;;143728;569;46012;-68
2022/02/28 02:11:03;;;;;;;7.03;4.93;;;;;;;;;;143729;566;45020;-67
2022/02/28 02:13:34;;;;;;;5.72;4.30;;;;;;;;;;143731;570;47020;-67
2022/02/28 02:16:01;;;;;;;6.60;4.95;;;;;;;;;;143728;594;46020;-66
2022/02/28 02:18:29;;;;;;;7.87;5.07;;;;;;;;;;143725;623;46012;-67
2022/02/28 02:20:56;;;;;;;7.32;5.10;;;;;;;;;;143728;567;46021;-67
2022/02/28 02:23:24;;;;;;;8.38;5.25;;;;;;;;;;143732;595;46020;-67
2022/02/28 02:25:51;;;;;;;8.40;5.53;;;;;;;;;;143726;594;46022;-66
2022/02/28 02:28:21;;;;;;;7.82;5.07;;;;;;;;;;143729;680;46012;-67
2022/02/28 02:30:51;;;;;;;6.80;4.90;;;;;;;;;;143730;627;45020;-66
2022/02/28 02:33:19;;;;;;;7.30;5.53;;;;;;;;;;143731;569;45020;-67
2022/02/28 02:35:54;;;;;;;7.57;4.82;;;;;;;;;;143728;590;46021;-67
2022/02/28 02:38:22;;;;;;;7.25;4.85;;;;;;;;;;143725;596;47012;-66
2022/02/28 02:40:49;;;;;;;7.20;5.45;;;;;;;;;;143730;575;45020;-67
2022/02/28 02:43:17;;;;;;;6.85;4.80;;;;;;;;;;143732;597;46010;-67
2022/02/28 02:45:44;;;;;;;6.32;4.65;;;;;;;;;;143729;570;46020;-68
2022/02/28 02:48:15;;;;;;;8.52;4.97;;;;;;;;;;143728;577;46012;-66
2022/02/28 02:50:42;;;;;;;7.68;4.47;;;;;;;;;;143729;572;45021;-67
2022/02/28 02:53:09;;;;;;;8.65;5.15;;;;;;;;;;143732;657;46010;-67
2022/02/28 02:55:37;;;;;;;6.57;4.72;;;;;;;;;;143727;569;46020;-68
2022/02/28 02:58:05;;;;;;;7.57;5.00;;;;;;;;;;143725;691;46013;-66
2022/02/28 03:00:34;;;;;;;6.93;4.87;;;;;;;;;;143729;574;45020;-68
2022/02/28 03:03:01;;;;;;;10.00;5.28;;;;;;;;;;143732;599;45020;-68
2022/02/28 03:05:28;;;;;;;7.28;4.90;;;;;;;;;;143725;596;46020;-67
2022/02/28 03:07:56;;;;;;;7.00;5.07;;;;;;;;;;143726;574;46010;-66
2022/02/28 03:10:23;;;;;;;7.05;4.78;;;;;;;;;;143728;564;46018;-66
2022/02/28 03:12:50;;;;;;;5.97;3.97;;;;;;;;;;143725;585;46023;-67
2022/02/28 03:15:17;;;;;;;5.12;4.05;;;;;;;;;;143725;586;46020;-66
2022/02/28 03:17:44;;;;;;;6.72;4.87;;;;;;;;;;143727;662;46010;-67
2022/02/28 03:20:12;;;;;;;6.07;4.10;;;;;;;;;;143730;596;46019;-67
2022/02/28 03:22:39;;;;;;;6.32;4.57;;;;;;;;;;143731;594;46023;-66
2022/02/28 03:25:07;;;;;;;6.97;4.37;;;;;;;;;;143726;657;46020;-67
2022/02/28 03:27:36;;;;;;;4.82;4.00;;;;;;;;;;143726;608;46011;-68
2022/02/28 03:30:04;;;;;;;6.00;4.50;;;;;;;;;;143729;587;46018;-67
2022/02/28 03:32:31;;;;;;;6.55;4.10;;;;;;;;;;143733;670;46022;-66
2022/02/28 03:34:58;;;;;;;4.97;4.10;;;;;;;;;;143727;605;46020;-67
2022/02/28 03:37:25;;;;;;;5.32;3.97;;;;;;;;;;143727;583;46022;-67
2022/02/28 03:39:52;;;;;;;5.85;3.90;;;;;;;;;;143727;643;46018;-68
2022/02/28 03:42:19;;;;;;;5.55;3.67;;;;;;;;;;143732;603;46022;-67
2022/02/28 03:44:46;;;;;;;5.65;4.32;;;;;;;;;;143725;621;46020;-67
2022/02/28 03:47:13;;;;;;;4.37;3.53;;;;;;;;;;143729;687;46010;-67
2022/02/28 03:49:40;;;;;;;6.43;4.37;;;;;;;;;;143729;664;46018;-67
2022/02/28 03:52:07;;;;;;;5.30;3.80;;;;;;;;;;143731;584;46022;-67
2022/02/28 03:54:35;;;;;;;5.30;4.10;;;;;;;;;;143726;604;47018;-66
2022/02/28 03:57:02;;;;;;;6.85;3.67;;;;;;;;;;143728;572;46023;-67
2022/02/28 03:59:29;;;;;;;4.65;3.58;;;;;;;;;;143729;564;46018;-66
2022/02/28 04:01:56;;;;;;;6.35;4.25;;;;;;;;;;143731;599;46022;-67
2022/02/28 04:04:23;;;;;;;4.95;3.58;;;;;;;;;;143726;597;46020;-68
2022/02/28 04:06:50;;;;;;;6.53;4.37;;;;;;;;;;143725;589;48010;-67
2022/02/28 04:09:17;;;;;;;6.70;4.40;;;;;;;;;;143728;571;46018;-66
2022/02/28 04:11:44;;;;;;;6.45;4.55;;;;;;;;;;143731;581;46022;-67
2022/02/28 04:14:13;;;;;;;6.12;4.45;;;;;;;;;;143728;609;46021;-67
2022/02/28 04:16:40;;;;;;;4.90;3.83;;;;;;;;;;143727;582;46010;-67
2022/02/28 04:19:07;;;;;;;8.05;4.68;;;;;;;;;;143729;573;46018;-67
2022/02/28 04:21:34;;;;;;;5.90;4.05;;;;;;;;;;143732;564;46023;-67
2022/02/28 04:24:01;;;;;;;6.25;4.28;;;;;;;;;;143729;650;46020;-68
2022/02/28 04:26:28;;;;;;;4.25;3.85;;;;;;;;;;143723;592;46023;-67
2022/02/28 04:28:55;;;;;;;6.30;4.12;;;;;;;;;;143729;615;46018;-67
2022/02/28 04:31:22;;;;;;;4.90;4.05;;;;;;;;;;143736;591;46022;-67
2022/02/28 04:33:49;;;;;;;5.70;4.10;;;;;;;;;;143729;611;46020;-67
2022/02/28 04:36:16;;;;;;;4.78;3.85;;;;;;;;;;143727;620;46010;-67
2022/02/28 04:38:43;;;;;;;6.82;4.25;;;;;;;;;;143729;671;46018;-67
2022/02/28 04:41:10;;;;;;;6.82;4.07;;;;;;;;;;143729;656;47023;-67
2022/02/28 04:43:38;;;;;;;8.18;4.40;;;;;;;;;;143727;679;46021;-67
2022/02/28 04:46:05;;;;;;;6.93;4.87;;;;;;;;;;143729;590;46010;-67
2022/02/28 04:48:32;;;;;;;5.20;3.47;;;;;;;;;;143730;576;46018;-67
2022/02/28 04:50:59;;;;;;;7.12;4.75;;;;;;;;;;143732;659;46023;-68
2022/02/28 04:53:26;;;;;;;7.78;5.15;;;;;;;;;;143728;579;46020;-68
2022/02/28 04:55:53;;;;;;;8.82;5.22;;;;;;;;;;143725;589;46025;-67
2022/02/28 04:58:20;;;;;;;8.00;5.00;;;;;;;;;;143729;592;46019;-67
2022/02/28 05:00:47;;;;;;;5.90;4.65;;;;;;;;;;143733;611;46022;-67
2022/02/28 05:03:15;;;;;;;10.57;5.37;;;;;;;;;;143729;635;46020;-66
2022/02/28 05:05:42;;;;;;;7.62;5.60;;;;;;;;;;143730;581;46010;-66
2022/02/28 05:08:09;;;;;;;7.35;5.30;;;;;;;;;;143729;564;46018;-68
2022/02/28 05:10:36;;;;;;;7.72;4.62;;;;;;;;;;143732;640;46022;-67
2022/02/28 05:13:03;;;;;;;8.00;5.40;;;;;;;;;;143728;605;46021;-67
2022/02/28 05:15:30;;;;;;;6.18;4.75;;;;;;;;;;143729;613;46010;-67
2022/02/28 05:17:57;;;;;;;7.00;5.28;;;;;;;;;;143728;573;46018;-67
2022/02/28 05:20:24;;;;;;;6.40;4.90;;;;;;;;;;143732;580;46023;-68
2022/02/28 05:22:51;;;;;;;8.05;5.37;;;;;;;;;;143727;606;46020;-67
2022/02/28 05:25:19;;;;;;;11.00;6.87;;;;;;;;;;143728;576;46920;-66
2022/02/28 05:27:47;;;;;;;9.25;6.28;;;;;;;;;;143730;605;46019;-66
2022/02/28 05:30:16;;;;;;;15.10;5.97;;;;;;;;;;143732;580;46022;-66
2022/02/28 05:32:43;;;;;;;7.35;5.05;;;;;;;;;;143727;613;46020;-67
2022/02/28 05:35:12;;;;;;;11.30;5.95;;;;;;;;;;143729;606;46010;-68
2022/02/28 05:37:40;;;;;;;10.05;6.03;;;;;;;;;;143731;625;46018;-67
2022/02/28 05:40:09;;;;;;;21.42;14.68;;;;;;;;;;143732;593;46022;-68
2022/02/28 05:42:38;;;;;;;23.27;20.80;;;;;;;;;;143730;564;46018;-66
2022/02/28 05:45:06;;;;;;;20.67;18.55;;;;;;;;;;143730;614;46010;-67
2022/02/28 05:47:33;;;;;;;16.92;13.38;;;;;;;;;;143729;591;46018;-67
2022/02/28 05:50:00;;;;;;;12.98;10.57;;;;;;;;;;143732;613;46023;-67
2022/02/28 05:52:27;;;;;;;8.40;7.22;;;;;;;;;;143728;587;46018;-68
2022/02/28 05:54:55;;;;;;;7.60;6.10;;;;;;;;;;143730;563;46010;-66
2022/02/28 05:57:23;;;;;;;12.02;6.28;;;;;;;;;;143729;586;46019;-68
2022/02/28 05:59:50;;;;;;;8.10;6.40;;;;;;;;;;143734;596;46022;-66
2022/02/28 06:02:17;;;;;;;10.98;6.07;;;;;;;;;;143727;594;46047;-67
2022/02/28 06:04:44;;;;;;;13.38;6.40;;;;;;;;;;143727;570;46011;-67
2022/02/28 06:07:11;;;;;;;8.18;5.90;;;;;;;;;;143730;569;46018;-66
2022/02/28 06:09:39;;;;;;;8.05;6.00;;;;;;;;;;143731;677;46022;-67
2022/02/28 06:12:08;;;;;;;11.93;10.10;;;;;;;;;;143729;596;46020;-67
2022/02/28 06:14:35;;;;;;;14.82;11.70;;;;;;;;;;143728;580;46010;-67
2022/02/28 06:17:02;;;;;;;17.23;11.85;;;;;;;;;;143729;585;46018;-66
2022/02/28 06:19:29;;;;;;;13.68;8.80;;;;;;;;;;143733;646;46022;-68
2022/02/28 06:21:57;;;;;;;8.43;6.60;;;;;;;;;;143727;590;46047;-67
2022/02/28 06:24:24;;;;;;;9.40;7.55;;;;;;;;;;143726;581;46010;-68
2022/02/28 06:26:51;;;;;;;9.57;7.00;;;;;;;;;;143728;610;46018;-67
2022/02/28 06:29:18;;;;;;;10.20;6.97;;;;;;;;;;143732;586;46022;-66
2022/02/28 06:31:45;;;;;;;10.15;6.78;;;;;;;;;;143728;576;46020;-68
2022/02/28 06:34:12;;;;;;;10.75;7.12;;;;;;;;;;143729;574;46010;-67
2022/02/28 06:36:40;;;;;;;7.60;5.82;;;;;;;;;;143730;588;46018;-66
2022/02/28 06:39:08;;;;;;;10.02;5.47;;;;;;;;;;143728;631;46022;-67
2022/02/28 06:41:35;;;;;;;8.88;5.75;;;;;;;;;;143729;569;46021;-67
2022/02/28 06:44:02;;;;;;;7.28;4.95;;;;;;;;;;143726;591;46010;-66
2022/02/28 06:46:29;;;;;;;5.43;4.15;;;;;;;;;;143729;583;46018;-68
2022/02/28 06:48:56;;;;;;;5.97;4.07;;;;;;;;;;143732;564;46023;-67
2022/02/28 06:51:23;;;;;;;5.95;4.25;;;;;;;;;;143727;633;46020;-67
2022/02/28 06:53:50;;;;;;;8.43;4.95;;;;;;;;;;143727;563;46012;-68
2022/02/28 06:56:17;;;;;;;8.98;5.12;;;;;;;;;;143728;570;46018;-68
2022/02/28 06:58:44;;;;;;;7.70;5.55;;;;;;;;;;143731;614;46023;-68
2022/02/28 07:01:11;;;;;;;8.82;6.05;;;;;;;;;;143729;644;46020;-68
2022/02/28 07:03:38;;;;;;;6.95;4.72;;;;;;;;;;143727;583;46013;-67
2022/02/28 07:06:06;;;;;;;9.38;4.80;;;;;;;;;;143730;656;46018;-68
2022/02/28 07:08:35;;;;;;;12.70;8.13;;;;;;;;;;143731;615;46022;-67
2022/02/28 07:11:02;;;;;;;15.95;9.63;;;;;;;;;;143727;572;46020;-68
2022/02/28 07:13:31;;;;;;;13.23;8.27;;;;;;;;;;143729;587;46012;-68
2022/02/28 07:15:58;;;;;;;8.77;6.15;;;;;;;;;;143728;569;46018;-68
2022/02/28 07:18:25;;;;;;;15.35;8.93;;;;;;;;;;143732;569;46022;-65
2022/02/28 07:20:52;;;;;;;11.23;6.53;;;;;;;;;;143728;643;47018;-65
2022/02/28 07:23:19;;;;;;;14.40;7.28;;;;;;;;;;143727;635;46012;-66
2022/02/28 07:25:46;;;;;;;9.85;6.53;;;;;;;;;;143731;634;46018;-66
2022/02/28 07:28:13;;;;;;;8.10;5.68;;;;;;;;;;143730;569;46023;-65
2022/02/28 07:30:40;;;;;;;7.65;5.30;;;;;;;;;;143728;610;46020;-67
2022/02/28 07:33:07;;;;;;;9.68;5.45;;;;;;;;;;143726;607;46012;-66
2022/02/28 07:35:34;;;;;;;8.93;5.53;;;;;;;;;;143728;659;46018;-67
2022/02/28 07:38:02;;;;;;;11.50;4.75;;;;;;;;;;143731;635;46022;-68
2022/02/28 07:40:29;;;;;;;6.43;4.18;;;;;;;;;;143728;610;46020;-66
2022/02/28 07:42:56;;;;;;;6.57;4.53;;;;;;;;;;143728;655;46012;-67
2022/02/28 07:45:23;;;;;;;10.60;4.30;;;;;;;;;;143728;638;46018;-67
2022/02/28 07:47:50;;;;;;;8.73;6.05;;;;;;;;;;143731;605;46022;-68
2022/02/28 07:50:17;;;;;;;5.43;3.10;;;;;;;;;;143728;641;46021;-67
2022/02/28 07:52:44;;;;;;;7.12;3.75;;;;;;;;;;143727;602;46012;-68
2022/02/28 07:55:12;;;;;;;6.85;4.78;;;;;;;;;;143730;570;46018;-67
2022/02/28 07:57:40;;;;;;;8.52;5.28;;;;;;;;;;143732;600;46023;-67
2022/02/28 08:00:08;;;;;;;7.18;4.95;;;;;;;;;;143727;588;47020;-67
2022/02/28 08:02:35;;;;;;;6.20;4.45;;;;;;;;;;143730;565;46013;-67
2022/02/28 08:05:02;;;;;;;5.28;3.47;;;;;;;;;;143728;585;46019;-68
2022/02/28 08:07:29;;;;;;;4.50;3.22;;;;;;;;;;143731;593;46022;-67
2022/02/28 08:09:56;;;;;;;5.32;3.22;;;;;;;;;;143729;623;46020;-67
2022/02/28 08:12:25;;;;;;;6.10;3.55;;;;;;;;;;143726;576;46012;-68
2022/02/28 08:14:52;;;;;;;6.30;3.62;;;;;;;;;;143729;599;46018;-68
2022/02/28 08:17:19;;;;;;;5.15;3.55;;;;;;;;;;143733;613;46022;-66
2022/02/28 08:19:46;;;;;;;4.35;3.67;;;;;;;;;;143727;585;46042;-67
2022/02/28 08:22:13;;;;;;;7.10;4.05;;;;;;;;;;143731;567;46012;-66
2022/02/28 08:24:40;;;;;;;4.47;3.60;;;;;;;;;;143726;643;49012;-67
2022/02/28 08:27:07;;;;;;;4.93;3.40;;;;;;;;;;143730;624;46023;-68
2022/02/28 08:29:34;;;;;;;5.45;3.67;;;;;;;;;;143728;576;46020;-68
2022/02/28 08:32:01;;;;;;;8.18;4.40;;;;;;;;;;143727;587;46013;-66
2022/02/28 08:34:28;;;;;;;20.27;8.77;;;;;;;;;;143728;577;46019;-65
2022/02/28 08:36:55;;;;;;;8.15;5.87;;;;;;;;;;143731;589;46022;-67
2022/02/28 08:39:22;;;;;;;10.35;3.60;;;;;;;;;;143729;574;46020;-67
2022/02/28 08:41:49;;;;;;;6.10;4.37;;;;;;;;;;143724;625;47920;-68
2022/02/28 08:44:16;;;;;;;13.32;6.45;;;;;;;;;;143729;594;46018;-66
2022/02/28 08:46:43;;;;;;;7.65;3.80;;;;;;;;;;143730;617;46022;-68
2022/02/28 08:49:10;;;;;;;4.90;3.33;;;;;;;;;;143725;570;46021;-67
2022/02/28 08:51:38;;;;;;;5.45;3.17;;;;;;;;;;143726;569;46012;-68
2022/02/28 08:54:05;;;;;;;8.00;3.55;;;;;;;;;;143727;564;46018;-68
2022/02/28 08:56:32;;;;;;;3.92;3.42;;;;;;;;;;143731;569;46023;-67
2022/02/28 08:58:59;;;;;;;3.30;3.00;;;;;;;;;;143727;639;46020;-67
2022/02/28 09:01:26;;;;;;;5.75;3.47;;;;;;;;;;143727;606;46013;-66
2022/02/28 09:03:53;;;;;;;4.35;2.75;;;;;;;;;;143728;577;46019;-68
2022/02/28 09:06:20;;;;;;;5.85;3.08;;;;;;;;;;143731;572;46022;-67
2022/02/28 09:08:48;;;;;;;3.95;2.67;;;;;;;;;;143724;572;46020;-66
2022/02/28 09:11:16;;;;;;;7.10;4.10;;;;;;;;;;143726;626;46921;-66
2022/02/28 09:13:43;;;;;;;5.70;3.03;;;;;;;;;;143726;663;46018;-65
2022/02/28 09:16:10;;;;;;;8.18;4.43;;;;;;;;;;143730;591;46022;-66
2022/02/28 09:18:37;;;;;;;4.80;3.25;;;;;;;;;;143724;581;46048;-66
2022/02/28 09:21:04;;;;;;;6.70;3.85;;;;;;;;;;143728;579;46012;-66
2022/02/28 09:23:31;;;;;;;5.00;2.92;;;;;;;;;;143728;577;46018;-67
2022/02/28 09:25:58;;;;;;;8.23;5.03;;;;;;;;;;143732;579;46023;-66
2022/02/28 09:28:26;;;;;;;9.27;4.93;;;;;;;;;;143724;614;47018;-67
2022/02/28 09:30:53;;;;;;;6.53;3.92;;;;;;;;;;143727;573;46012;-65
2022/02/28 09:33:20;;;;;;;5.55;3.92;;;;;;;;;;143728;628;46018;-64
2022/02/28 09:35:48;;;;;;;6.50;3.87;;;;;;;;;;143729;581;46022;-66
2022/02/28 09:38:17;;;;;;;5.75;3.15;;;;;;;;;;143726;585;46020;-67
2022/02/28 09:40:46;;;;;;;4.03;3.05;;;;;;;;;;143728;605;46012;-67
2022/02/28 09:43:14;;;;;;;5.85;3.28;;;;;;;;;;143729;564;46018;-67
2022/02/28 09:45:41;;;;;;;4.43;2.35;;;;;;;;;;143730;584;46022;-66
2022/02/28 09:48:11;;;;;;;7.93;3.10;;;;;;;;;;143727;596;46021;-67
2022/02/28 09:50:38;;;;;;;3.28;2.17;;;;;;;;;;143727;620;46012;-67
2022/02/28 09:53:07;;;;;;;5.47;2.40;;;;;;;;;;143728;566;46018;-67
2022/02/28 09:55:34;;;;;;;4.62;2.28;;;;;;;;;;143729;704;46023;-67
2022/02/28 09:58:01;;;;;;;3.78;2.47;;;;;;;;;;143725;654;46037;-66
2022/02/28 10:00:28;;;;;;;4.35;2.90;;;;;;;;;;143724;645;46012;-67
2022/02/28 10:02:56;;;;;;;6.12;3.15;;;;;;;;;;143726;569;46019;-66
2022/02/28 10:05:24;;;;;;;4.55;3.15;;;;;;;;;;143732;580;46022;-66
2022/02/28 10:07:54;;;;;;;3.08;2.53;;;;;;;;;;143755;569;45018;-65
2022/02/28 10:10:22;;;;;;;4.78;2.67;;;;;;;;;;143755;566;45012;-66
2022/02/28 10:12:53;;;;;;;3.35;3.00;;;;;;;;;;143757;615;44912;-66
2022/02/28 10:15:25;;;;;;;9.65;5.22;;;;;;;;;;143760;611;45010;-66
2022/02/28 10:18:01;;;;;;;4.40;2.70;;;;;;;;;;143754;588;45020;-66
2022/02/28 10:20:33;;;;;;;3.30;2.47;;;;;;;;;;143751;613;46012;-66
2022/02/28 10:23:03;;;;;;;6.28;3.33;;;;;;;;;;143756;684;45018;-66
2022/02/28 10:25:51;;;;;;;3.65;2.67;;;;;;;;;;143757;564;45023;-67
2022/02/28 10:28:26;;;;;;;4.47;2.70;;;;;;;;;;143755;567;45018;-65
2022/02/28 10:30:58;;;;;;;4.53;3.28;;;;;;;;;;143754;590;45921;-65
2022/02/28 10:33:30;;;;;;;5.30;3.90;;;;;;;;;;143755;636;44019;-66
2022/02/28 10:36:15;;;;;;;4.07;3.00;;;;;;;;;;143758;564;45022;-65
2022/02/28 10:38:49;;;;;;;5.30;3.22;;;;;;;;;;143755;591;45019;-66
2022/02/28 10:41:23;;;;;;;4.00;3.05;;;;;;;;;;143752;630;46012;-66
2022/02/28 10:43:52;;;;;;;2.87;2.53;;;;;;;;;;143755;645;45014;-66
2022/02/28 10:46:29;;;;;;;3.80;2.72;;;;;;;;;;143758;658;45022;-65
2022/02/28 10:49:01;;;;;;;4.45;3.15;;;;;;;;;;143756;586;45913;-67
2022/02/28 10:51:29;;;;;;;2.90;2.30;;;;;;;;;;143756;577;45920;-67
2022/02/28 10:54:13;;;;;;;4.12;2.65;;;;;;;;;;143757;583;44912;-66
2022/02/28 10:57:16;;;;;;;3.80;2.50;;;;;;;;;;143757;574;45022;-67
2022/02/28 10:59:45;;;;;;;3.90;2.50;;;;;;;;;;143756;569;45018;-65
2022/02/28 11:02:26;;;;;;;3.55;2.45;;;;;;;;;;143754;566;45920;-67
2022/02/28 11:05:15;;;;;;;4.03;2.42;;;;;;;;;;143758;654;44018;-67
2022/02/28 11:07:53;;;;;;;2.20;2.00;;;;;;;;;;143733;589;45028;-65
2022/02/28 11:10:21;;;;;;;5.00;2.37;;;;;;;;;;143724;567;47019;-65
2022/02/28 11:12:49;;;;;;;5.00;2.67;;;;;;;;;;143726;608;46012;-66
2022/02/28 11:15:18;;;;;;;4.60;2.53;;;;;;;;;;143726;584;46018;-67
2022/02/28 11:17:50;;;;;;;5.10;2.90;;;;;;;;;;143730;594;46023;-66
2022/02/28 11:20:19;;;;;;;2.05;1.92;;;;;;;;;;143724;598;47018;-67
2022/02/28 11:22:48;;;;;;;4.18;2.50;;;;;;;;;;143727;579;46013;-65
2022/02/28 11:25:17;;;;;;;2.45;2.25;;;;;;;;;;143727;602;46019;-67
2022/02/28 11:27:46;;;;;;;3.92;2.75;;;;;;;;;;143728;655;46022;-67
2022/02/28 11:30:23;;;;;;;5.03;3.25;;;;;;;;;;143727;583;46020;-66
2022/02/28 11:32:55;;;;;;;5.43;3.08;;;;;;;;;;143727;569;46032;-65
2022/02/28 11:35:48;;;;;;;4.25;3.08;;;;;;;;;;143726;644;46018;-66
2022/02/28 11:38:39;;;;;;;3.20;2.33;;;;;;;;;;143728;613;46022;-66
2022/02/28 11:41:06;;;;;;;5.50;3.30;;;;;;;;;;143728;567;46018;-65
2022/02/28 11:43:44;;;;;;;4.12;2.90;;;;;;;;;;143726;566;46012;-67
2022/02/28 11:46:17;;;;;;;3.33;2.58;;;;;;;;;;143729;576;46018;-65
2022/02/28 11:48:50;;;;;;;4.95;2.80;;;;;;;;;;143728;583;46023;-65
2022/02/28 11:51:34;;;;;;;5.00;3.25;;;;;;;;;;143726;588;46027;-65
2022/02/28 11:54:05;;;;;;;3.67;2.83;;;;;;;;;;143725;589;46013;-65
2022/02/28 11:56:54;;;;;;;5.72;2.75;;;;;;;;;;143727;619;46018;-66
2022/02/28 11:59:32;;;;;;;6.12;2.90;;;;;;;;;;143730;587;46022;-65
2022/02/28 12:02:08;;;;;;;5.68;2.70;;;;;;;;;;143727;581;46021;-65
2022/02/28 12:04:43;;;;;;;5.00;3.00;;;;;;;;;;143724;620;46012;-66
2022/02/28 12:07:31;;;;;;;5.65;3.30;;;;;;;;;;143726;744;46018;-67
2022/02/28 12:10:06;;;;;;;4.57;2.75;;;;;;;;;;143729;639;46023;-66
2022/02/28 12:12:35;;;;;;;5.45;2.97;;;;;;;;;;143724;570;47018;-67
2022/02/28 12:15:12;;;;;;;4.25;3.37;;;;;;;;;;143727;615;46012;-66
2022/02/28 12:17:59;;;;;;;3.58;2.78;;;;;;;;;;143728;587;46019;-66
2022/02/28 12:20:45;;;;;;;4.60;3.03;;;;;;;;;;143731;620;46022;-64
2022/02/28 12:23:15;;;;;;;3.62;2.83;;;;;;;;;;143727;585;46019;-66
2022/02/28 12:26:02;;;;;;;3.95;3.03;;;;;;;;;;143727;578;46021;-66
2022/02/28 12:28:44;;;;;;;4.12;2.95;;;;;;;;;;143725;577;46020;-66
2022/02/28 12:31:32;;;;;;;5.78;3.30;;;;;;;;;;143730;674;46022;-67
2022/02/28 12:34:02;;;;;;;3.30;2.53;;;;;;;;;;143724;589;47022;-65
2022/02/28 12:36:31;;;;;;;3.75;2.42;;;;;;;;;;143725;580;46012;-66
2022/02/28 12:39:04;;;;;;;2.83;2.60;;;;;;;;;;143727;591;46019;-65
2022/02/28 12:41:34;;;;;;;8.07;4.18;;;;;;;;;;143731;588;46022;-67
2022/02/28 12:44:06;;;;;;;9.05;2.72;;;;;;;;;;143725;569;46044;-66
2022/02/28 12:46:41;;;;;;;9.95;6.00;;;;;;;;;;143727;630;46012;-67
2022/02/28 12:49:08;;;;;;;3.62;2.78;;;;;;;;;;143727;629;46018;-65
2022/02/28 12:51:37;;;;;;;4.80;2.70;;;;;;;;;;143731;617;46022;-65
2022/02/28 12:54:12;;;;;;;4.00;3.03;;;;;;;;;;143727;580;46021;-64
2022/02/28 12:56:54;;;;;;;4.05;3.10;;;;;;;;;;143727;604;46012;-65
2022/02/28 12:59:35;;;;;;;5.70;2.70;;;;;;;;;;143729;624;46018;-65
2022/02/28 13:02:04;;;;;;;5.95;3.35;;;;;;;;;;143730;628;46023;-66
2022/02/28 13:04:31;;;;;;;9.10;3.28;;;;;;;;;;143727;639;46020;-67
2022/02/28 13:06:58;;;;;;;7.50;3.33;;;;;;;;;;143724;593;46012;-65
2022/02/28 13:09:26;;;;;;;5.43;3.20;;;;;;;;;;143726;653;46019;-67
2022/02/28 13:11:55;;;;;;;8.43;4.70;;;;;;;;;;143730;589;46022;-65
2022/02/28 13:14:24;;;;;;;3.03;2.72;;;;;;;;;;143725;609;46020;-65
2022/02/28 13:16:56;;;;;;;5.75;3.28;;;;;;;;;;143724;569;46013;-66
2022/02/28 13:19:33;;;;;;;7.80;4.07;;;;;;;;;;143729;565;46018;-66
2022/02/28 13:22:03;;;;;;;5.93;3.83;;;;;;;;;;143730;639;46022;-66
2022/02/28 13:24:38;;;;;;;2.97;2.50;;;;;;;;;;143726;587;46021;-66
2022/02/28 13:27:06;;;;;;;;;;;;;;;;;;143732;975;46012;-66
2022/02/28 13:29:34;;;;;;;4.30;3.00;;;;;;;;;;143734;597;46018;-67
2022/02/28 13:32:21;;;;;;;7.12;2.65;;;;;;;;;;143726;616;46023;-65
2022/02/28 13:34:53;;;;;;;3.78;2.78;;;;;;;;;;143725;630;46022;-67
2022/02/28 13:37:24;;;;;;;3.67;2.95;;;;;;;;;;143724;570;46013;-65
2022/02/28 13:39:53;;;;;;;5.78;3.08;;;;;;;;;;143729;571;46019;-66
2022/02/28 13:42:24;;;;;;;5.15;4.05;;;;;;;;;;143729;569;46022;-66
2022/02/28 13:45:08;;;;;;;7.10;4.53;;;;;;;;;;143728;632;46020;-65
2022/02/28 13:47:37;;;;;;;6.65;4.68;;;;;;;;;;143728;585;46012;-66
2022/02/28 13:50:06;;;;;;;8.13;4.50;;;;;;;;;;143728;565;46018;-66
2022/02/28 13:52:36;;;;;;;6.85;5.12;;;;;;;;;;143730;579;46022;-66
2022/02/28 13:55:09;;;;;;;9.48;5.95;;;;;;;;;;143726;620;46046;-67
2022/02/28 13:57:42;;;;;;;8.25;5.85;;;;;;;;;;143726;574;46012;-67
2022/02/28 14:00:28;;;;;;;10.50;5.82;;;;;;;;;;143726;565;46018;-66
2022/02/28 14:03:17;;;;;;;8.05;4.65;;;;;;;;;;143729;571;46022;-65
2022/02/28 14:05:47;;;;;;;7.45;5.78;;;;;;;;;;143729;661;46020;-66
2022/02/28 14:08:22;;;;;;;8.52;5.90;;;;;;;;;;143741;608;46012;-66
2022/02/28 14:11:04;;;;;;;7.03;4.97;;;;;;;;;;143741;596;46018;-67
2022/02/28 14:13:39;;;;;;;5.43;4.62;;;;;;;;;;143740;600;46022;-65
2022/02/28 14:16:23;;;;;;;6.47;4.75;;;;;;;;;;143734;596;46020;-67
2022/02/28 14:19:19;;;;;;;7.03;4.78;;;;;;;;;;143738;577;46024;-67
2022/02/28 14:22:01;;;;;;;10.90;5.60;;;;;;;;;;143741;633;46018;-66
2022/02/28 14:24:28;;;;;;;6.35;3.80;;;;;;;;;;143745;567;46023;-66
2022/02/28 14:26:57;;;;;;;7.37;4.10;;;;;;;;;;143738;595;47018;-67
2022/02/28 14:29:25;;;;;;;9.10;3.97;;;;;;;;;;143740;593;46013;-67
2022/02/28 14:31:57;;;;;;;5.82;3.95;;;;;;;;;;143739;612;46019;-66
2022/02/28 14:34:28;;;;;;;6.75;4.97;;;;;;;;;;143744;575;46022;-67
2022/02/28 14:36:55;;;;;;;6.65;5.43;;;;;;;;;;143738;599;47020;-66
2022/02/28 14:39:23;;;;;;;6.78;4.80;;;;;;;;;;143741;566;46012;-67
2022/02/28 14:41:50;;;;;;;5.78;4.30;;;;;;;;;;143739;589;46018;-65
2022/02/28 14:44:17;;;;;;;5.37;3.55;;;;;;;;;;143744;625;46022;-67
2022/02/28 14:46:46;;;;;;;4.55;3.50;;;;;;;;;;143739;663;46021;-67
2022/02/28 14:49:13;;;;;;;5.75;3.70;;;;;;;;;;143735;610;47012;-66
2022/02/28 14:51:42;;;;;;;4.80;3.50;;;;;;;;;;143742;618;46018;-65
2022/02/28 14:54:09;;;;;;;4.57;3.15;;;;;;;;;;143745;608;46023;-66